Main page
METAR-TAF:

METAR-TAF

Airports :

West Bend Municipal Airport

West Bend, Wisconsin, United States

latitude: 43-25-20N, longitude: 088-07-41W, elevation: 886 ft

Current weather observation

The report was made 6 minutes ago, at 18:55 UTC
Wind 5 mph from the North
Temperature 46°F
Humidity 42%
Pressure 30.30 in. Hg
Visibility: 10 miles
Clear sky

METAR: KETB 241855Z AUTO 36004KT 10SM CLR 08/M04 A3030 RMK AO2

Time: 14:01 (19:01 UTC)


TAF: missing

Weather observations and forecasts of more than 4000 airports (METAR and TAF reports).

The available stations are represented by yellow and red dots on the map.

Hover mouse over dot to see the name of the station.

Then click to see weather observations and forecasts.

To change the map : click on the green buttons with a black cross to zoom in, on the green button with a dash to zoom out, or on the green arrows for adjacent maps.


METAR-TAF: